Time;durP1;ratioP1;P1;durP2;ratioP2;P2;SDS_P1;SDS_P2;PMS_P1;PMS_P2;Temp;Humidity;BMP_temperature;BMP_pressure;BME280_temperature;BME280_humidity;BME280_pressure;Samples;Min_cycle;Max_cycle;Signal;HPM_P1;HPM_P2
2022/05/28 00:01:57;;;;;;;11.50;1.55;;;10.30;99.90;;;;;;4942751;28;20078;-72
2022/05/28 00:04:23;;;;;;;27.25;3.58;;;10.40;99.90;;;;;;4943462;28;20158;-72
2022/05/28 00:06:48;;;;;;;11.05;1.10;;;10.30;99.90;;;;;;4941952;28;20035;-72
2022/05/28 00:09:14;;;;;;;11.10;2.30;;;10.30;99.90;;;;;;4945953;29;20043;-72
2022/05/28 00:11:41;;;;;;;5.45;1.13;;;10.30;99.90;;;;;;4943213;28;20051;-72
2022/05/28 00:14:08;;;;;;;7.88;1.33;;;10.20;99.90;;;;;;4943792;29;20051;-71
2022/05/28 00:16:36;;;;;;;9.52;1.42;;;10.20;99.90;;;;;;4941851;28;20027;-70
2022/05/28 00:19:02;;;;;;;7.90;1.23;;;10.10;99.90;;;;;;4945787;28;20051;-70
2022/05/28 00:21:28;;;;;;;11.27;2.75;;;10.20;99.90;;;;;;4944516;28;20047;-71
2022/05/28 00:23:53;;;;;;;9.60;1.52;;;10.10;99.90;;;;;;4945702;28;20054;-71
2022/05/28 00:26:19;;;;;;;8.50;1.85;;;10.10;99.90;;;;;;4941385;28;20542;-71
2022/05/28 00:28:45;;;;;;;8.82;1.70;;;10.10;99.90;;;;;;4941745;28;20137;-71
2022/05/28 00:31:12;;;;;;;16.33;3.42;;;9.90;99.90;;;;;;4944694;28;20126;-70
2022/05/28 00:33:38;;;;;;;8.07;1.38;;;9.90;99.90;;;;;;4944782;28;20823;-71
2022/05/28 00:36:08;;;;;;;11.65;1.85;;;9.90;99.90;;;;;;4940176;28;20032;-73
2022/05/28 00:38:34;;;;;;;10.27;2.55;;;10.00;99.90;;;;;;4943981;28;20075;-70
2022/05/28 00:41:00;;;;;;;8.18;1.45;;;10.00;99.90;;;;;;4944453;28;20150;-71
2022/05/28 00:43:27;;;;;;;10.15;2.65;;;10.00;99.90;;;;;;4944960;28;20069;-72
2022/05/28 00:46:17;;;;;;;7.40;1.15;;;9.90;99.90;;;;;;4942845;28;20075;-72
2022/05/28 00:48:44;;;;;;;10.50;1.73;;;9.80;99.90;;;;;;4943741;28;20051;-71
2022/05/28 00:51:15;;;;;;;13.63;2.30;;;9.90;99.90;;;;;;4945230;28;20061;-71
2022/05/28 00:53:41;;;;;;;7.18;1.27;;;9.80;99.90;;;;;;4943500;28;20490;-71
2022/05/28 00:56:07;;;;;;;9.05;1.83;;;10.00;99.90;;;;;;4942816;28;20035;-72
2022/05/28 00:58:33;;;;;;;9.55;2.45;;;10.00;99.90;;;;;;4943347;29;20201;-70
2022/05/28 01:01:00;;;;;;;11.65;1.98;;;9.90;99.90;;;;;;4943884;29;20031;-70
2022/05/28 01:03:37;;;;;;;12.07;2.30;;;10.00;99.90;;;;;;4944049;29;20133;-71
2022/05/28 01:06:10;;;;;;;10.63;1.60;;;9.90;99.90;;;;;;4940302;28;20118;-74
2022/05/28 01:08:54;;;;;;;11.32;1.83;;;9.90;99.90;;;;;;4942991;28;20047;-70
2022/05/28 01:11:26;;;;;;;17.92;3.05;;;9.80;99.90;;;;;;4943565;28;20051;-72
2022/05/28 01:14:21;;;;;;;13.00;1.30;;;9.80;99.90;;;;;;4942380;28;20070;-71
2022/05/28 01:16:52;;;;;;;11.02;1.92;;;9.80;99.90;;;;;;4933946;29;20453;-70
2022/05/28 01:19:26;;;;;;;7.85;1.77;;;9.90;99.90;;;;;;4942517;28;20051;-73
2022/05/28 01:22:04;;;;;;;11.68;2.15;;;9.80;99.90;;;;;;4945104;28;20078;-70
2022/05/28 01:24:35;;;;;;;9.60;1.58;;;9.80;99.90;;;;;;4941031;29;20051;-71
2022/05/28 01:27:22;;;;;;;15.93;3.47;;;9.80;99.90;;;;;;4941280;28;20097;-71
2022/05/28 01:29:51;;;;;;;10.73;1.92;;;9.70;99.90;;;;;;4938872;28;20138;-71
2022/05/28 01:32:19;;;;;;;13.63;2.63;;;9.60;99.90;;;;;;4942398;28;20093;-70
2022/05/28 01:34:45;;;;;;;18.35;3.00;;;9.60;99.90;;;;;;4939708;28;20389;-71
2022/05/28 01:37:11;;;;;;;13.60;3.67;;;9.60;99.90;;;;;;4938230;29;20082;-71
2022/05/28 01:39:40;;;;;;;8.88;1.80;;;9.60;99.90;;;;;;4940032;28;20053;-70
2022/05/28 01:42:07;;;;;;;11.30;1.20;;;9.60;99.90;;;;;;4942015;28;20043;-71
2022/05/28 01:44:36;;;;;;;21.30;3.00;;;9.60;99.90;;;;;;4940317;28;20043;-71
2022/05/28 01:47:01;;;;;;;7.55;1.85;;;9.60;99.90;;;;;;4941522;28;20051;-71
2022/05/28 01:49:29;;;;;;;8.27;1.52;;;9.50;99.90;;;;;;4942952;28;20989;-72
2022/05/28 01:51:58;;;;;;;6.15;1.88;;;9.60;99.90;;;;;;4943541;28;20517;-71
2022/05/28 01:54:27;;;;;;;7.28;1.88;;;9.50;99.90;;;;;;4942337;29;20102;-71
2022/05/28 01:56:55;;;;;;;11.17;2.20;;;9.40;99.90;;;;;;4943980;29;20047;-70
2022/05/28 01:59:24;;;;;;;13.77;2.08;;;9.50;99.90;;;;;;4942323;28;20309;-72
2022/05/28 02:01:51;;;;;;;19.42;3.55;;;9.60;99.90;;;;;;4943699;28;20049;-71
2022/05/28 02:04:16;;;;;;;41.58;3.13;;;9.60;99.90;;;;;;4942902;28;20035;-72
2022/05/28 02:06:42;;;;;;;6.93;1.42;;;9.50;99.90;;;;;;4941013;28;20050;-70
2022/05/28 02:09:12;;;;;;;35.20;2.63;;;9.50;99.90;;;;;;4942204;28;20465;-71
2022/05/28 02:11:59;;;;;;;15.98;2.15;;;9.60;99.90;;;;;;4943925;28;20116;-71
2022/05/28 02:14:50;;;;;;;7.38;1.55;;;9.50;99.90;;;;;;4940921;28;20138;-71
2022/05/28 02:17:22;;;;;;;7.13;1.75;;;9.40;99.90;;;;;;4940623;28;20534;-71
2022/05/28 02:20:09;;;;;;;13.70;2.20;;;9.50;99.90;;;;;;4940779;29;20142;-73
2022/05/28 02:22:49;;;;;;;11.77;3.05;;;9.50;99.90;;;;;;4944065;28;20098;-72
2022/05/28 02:25:23;;;;;;;9.00;2.05;;;9.60;99.90;;;;;;4942855;29;20506;-72
2022/05/28 02:27:52;;;;;;;14.63;2.97;;;9.50;99.90;;;;;;4941050;28;20114;-71
2022/05/28 02:30:18;;;;;;;13.40;3.30;;;9.60;99.90;;;;;;4941553;28;20078;-72
2022/05/28 02:32:43;;;;;;;15.52;2.42;;;9.60;99.90;;;;;;4942711;29;20102;-71
2022/05/28 02:35:11;;;;;;;15.52;3.22;;;9.70;99.90;;;;;;4941384;28;20043;-72
2022/05/28 02:37:37;;;;;;;14.90;3.22;;;9.70;99.90;;;;;;4942415;28;20118;-71
2022/05/28 02:40:03;;;;;;;10.48;2.92;;;9.70;99.90;;;;;;4941708;28;20495;-73
2022/05/28 02:42:30;;;;;;;7.82;2.45;;;9.70;99.90;;;;;;4942567;28;20047;-71
2022/05/28 02:44:55;;;;;;;15.20;2.67;;;9.80;99.90;;;;;;4941498;28;20035;-71
2022/05/28 02:47:21;;;;;;;11.10;3.97;;;9.80;99.90;;;;;;4941888;28;20130;-72
2022/05/28 02:49:47;;;;;;;11.52;2.67;;;9.80;99.90;;;;;;4941986;28;20051;-70
2022/05/28 02:52:12;;;;;;;18.98;3.20;;;9.70;99.90;;;;;;4942404;28;20081;-72
2022/05/28 02:54:38;;;;;;;10.30;2.55;;;9.70;99.90;;;;;;4944375;28;20035;-73
2022/05/28 02:57:04;;;;;;;18.25;3.22;;;9.80;99.90;;;;;;4945475;28;20094;-72
2022/05/28 02:59:31;;;;;;;13.68;3.30;;;9.80;99.90;;;;;;4943968;28;20049;-72
2022/05/28 03:01:56;;;;;;;12.65;2.15;;;9.80;99.90;;;;;;4946077;28;20035;-71
2022/05/28 03:04:22;;;;;;;13.40;3.63;;;9.80;99.90;;;;;;4943761;28;20097;-71
2022/05/28 03:06:48;;;;;;;15.25;3.78;;;9.70;99.90;;;;;;4941158;28;20094;-72
2022/05/28 03:09:15;;;;;;;8.82;3.42;;;9.80;99.90;;;;;;4945313;28;20051;-71
2022/05/28 03:11:41;;;;;;;12.98;2.05;;;9.70;99.90;;;;;;4947875;28;20410;-71
2022/05/28 03:14:07;;;;;;;10.75;2.28;;;9.80;99.90;;;;;;4943787;28;20062;-71
2022/05/28 03:16:34;;;;;;;22.38;4.60;;;9.70;99.90;;;;;;4944633;28;20046;-71
2022/05/28 03:18:59;;;;;;;8.88;1.92;;;9.60;99.90;;;;;;4946511;29;20079;-72
2022/05/28 03:21:25;;;;;;;18.63;3.63;;;9.80;99.90;;;;;;4942591;28;20047;-71
2022/05/28 03:23:51;;;;;;;17.58;2.72;;;9.70;99.90;;;;;;4949016;28;20090;-71
2022/05/28 03:26:23;;;;;;;18.90;2.85;;;9.70;99.90;;;;;;4945002;28;20039;-71
2022/05/28 03:28:49;;;;;;;15.32;4.30;;;9.70;99.90;;;;;;4936238;28;20047;-71
2022/05/28 03:31:15;;;;;;;22.38;3.13;;;9.70;99.90;;;;;;4944881;28;20040;-71
2022/05/28 03:33:41;;;;;;;22.30;4.13;;;9.70;99.90;;;;;;4945921;29;20094;-72
2022/05/28 03:36:07;;;;;;;10.32;1.92;;;9.70;99.90;;;;;;4946223;28;20042;-72
2022/05/28 03:38:34;;;;;;;15.90;3.15;;;9.80;99.90;;;;;;4939689;28;20487;-72
2022/05/28 03:41:00;;;;;;;12.18;3.63;;;9.70;99.90;;;;;;4944443;28;20410;-70
2022/05/28 03:43:26;;;;;;;25.67;3.70;;;9.70;99.90;;;;;;4944449;29;20035;-71
2022/05/28 03:45:52;;;;;;;9.35;2.47;;;9.70;99.90;;;;;;4945033;29;20070;-70
2022/05/28 03:48:18;;;;;;;24.52;4.13;;;9.70;99.90;;;;;;4940244;28;20067;-71
2022/05/28 03:50:44;;;;;;;11.50;2.22;;;9.80;99.90;;;;;;4942386;28;20051;-71
2022/05/28 03:53:09;;;;;;;30.25;4.45;;;9.90;99.90;;;;;;4944995;28;20078;-71
2022/05/28 03:55:38;;;;;;;17.15;3.30;;;10.00;99.90;;;;;;4945163;28;20040;-70
2022/05/28 03:58:04;;;;;;;15.55;2.88;;;9.90;99.90;;;;;;4942522;28;20040;-72
2022/05/28 04:00:30;;;;;;;13.55;3.35;;;10.00;99.90;;;;;;4943615;28;20039;-72
2022/05/28 04:02:57;;;;;;;8.85;1.92;;;10.00;99.90;;;;;;4944209;28;20062;-71
2022/05/28 04:05:23;;;;;;;22.73;3.60;;;10.10;99.90;;;;;;4941393;28;20039;-72
2022/05/28 04:07:49;;;;;;;15.63;3.95;;;10.10;99.90;;;;;;4946610;28;20525;-72
2022/05/28 04:10:15;;;;;;;14.13;2.88;;;10.10;99.90;;;;;;4942970;28;20135;-70
2022/05/28 04:12:40;;;;;;;10.68;2.80;;;10.20;99.90;;;;;;4944131;28;20047;-71
2022/05/28 04:15:07;;;;;;;18.05;2.97;;;10.20;99.90;;;;;;4944860;28;20513;-71
2022/05/28 04:17:33;;;;;;;12.35;3.15;;;10.20;99.90;;;;;;4944425;28;20498;-71
2022/05/28 04:19:58;;;;;;;15.18;2.63;;;10.10;99.90;;;;;;4945820;28;20090;-71
2022/05/28 04:22:25;;;;;;;18.05;4.15;;;10.10;99.90;;;;;;4942013;28;20035;-71
2022/05/28 04:24:51;;;;;;;15.38;3.20;;;10.40;99.90;;;;;;4944954;28;20055;-72
2022/05/28 04:27:16;;;;;;;12.77;2.92;;;10.20;99.90;;;;;;4943889;28;20039;-72
2022/05/28 04:29:42;;;;;;;15.50;2.28;;;10.90;99.90;;;;;;4944900;28;20047;-72
2022/05/28 04:32:08;;;;;;;13.85;2.72;;;11.30;99.90;;;;;;4942404;28;20050;-73
2022/05/28 04:34:34;;;;;;;13.55;2.80;;;10.80;99.90;;;;;;4939021;28;20051;-72
2022/05/28 04:37:00;;;;;;;16.92;4.05;;;10.70;99.90;;;;;;4944588;28;20043;-72
2022/05/28 04:39:25;;;;;;;14.73;3.55;;;10.60;99.90;;;;;;4943143;28;20055;-71
2022/05/28 04:41:51;;;;;;;28.42;5.70;;;10.40;99.90;;;;;;4944137;29;20044;-71
2022/05/28 04:44:17;;;;;;;11.73;1.80;;;10.30;99.90;;;;;;4941415;28;20062;-71
2022/05/28 04:46:42;;;;;;;21.77;4.93;;;10.20;99.90;;;;;;4942476;28;20074;-72
2022/05/28 04:49:08;;;;;;;12.82;2.63;;;10.30;99.90;;;;;;4944526;28;20418;-72
2022/05/28 04:51:34;;;;;;;15.75;3.58;;;10.30;99.90;;;;;;4943032;28;20167;-71
2022/05/28 04:53:59;;;;;;;41.45;4.95;;;10.30;99.90;;;;;;4944134;29;20043;-71
2022/05/28 04:56:25;;;;;;;22.60;3.97;;;10.40;99.90;;;;;;4943920;28;20050;-71
2022/05/28 04:58:51;;;;;;;13.25;2.10;;;10.40;99.90;;;;;;4944329;28;20054;-70
2022/05/28 05:01:18;;;;;;;23.35;4.07;;;10.40;99.90;;;;;;4945171;28;20041;-70
2022/05/28 05:03:44;;;;;;;31.90;4.32;;;10.40;99.90;;;;;;4941438;28;20047;-71
2022/05/28 05:06:11;;;;;;;12.68;3.78;;;10.40;99.90;;;;;;4941331;28;20051;-71
2022/05/28 05:08:36;;;;;;;10.48;2.30;;;10.30;99.90;;;;;;4942255;28;20448;-71
2022/05/28 05:11:02;;;;;;;13.18;2.63;;;10.40;99.90;;;;;;4943951;29;20039;-72
2022/05/28 05:13:28;;;;;;;13.43;2.95;;;10.40;99.90;;;;;;4940752;28;20512;-72
2022/05/28 05:15:54;;;;;;;17.63;2.72;;;10.40;99.90;;;;;;4946187;28;20043;-71
2022/05/28 05:18:19;;;;;;;18.27;2.78;;;10.40;99.90;;;;;;4942307;28;20047;-72
2022/05/28 05:20:45;;;;;;;10.20;3.67;;;10.50;99.90;;;;;;4944075;28;20078;-72
2022/05/28 05:23:11;;;;;;;13.40;2.38;;;10.50;99.90;;;;;;4941678;28;20091;-72
2022/05/28 05:25:36;;;;;;;13.65;3.03;;;10.40;99.90;;;;;;4943037;29;20031;-72
2022/05/28 05:28:02;;;;;;;14.23;1.60;;;10.20;99.90;;;;;;4941639;28;20767;-72
2022/05/28 05:30:28;;;;;;;7.85;1.52;;;9.90;99.90;;;;;;4946122;29;20059;-72
2022/05/28 05:32:55;;;;;;;7.05;1.35;;;9.70;99.90;;;;;;4942532;28;20043;-71
2022/05/28 05:35:21;;;;;;;7.78;1.85;;;9.50;99.90;;;;;;4945186;29;20047;-71
2022/05/28 05:37:47;;;;;;;6.25;1.08;;;9.50;99.90;;;;;;4944289;28;20600;-71
2022/05/28 05:40:13;;;;;;;6.63;1.58;;;9.50;99.90;;;;;;4940481;28;20086;-73
2022/05/28 05:42:39;;;;;;;10.23;2.25;;;9.50;99.90;;;;;;4942755;28;20411;-71
2022/05/28 05:45:06;;;;;;;7.13;1.48;;;9.50;99.90;;;;;;4941224;28;20047;-71
2022/05/28 05:47:32;;;;;;;6.25;2.72;;;9.50;99.90;;;;;;4942611;28;20039;-71
2022/05/28 05:49:57;;;;;;;14.85;3.15;;;9.60;99.90;;;;;;4939965;28;20422;-70
2022/05/28 05:52:23;;;;;;;12.18;2.92;;;9.50;99.90;;;;;;4939628;28;20043;-71
2022/05/28 05:54:48;;;;;;;13.25;2.63;;;9.60;99.90;;;;;;4942807;29;20134;-71
2022/05/28 05:57:14;;;;;;;16.17;3.22;;;9.70;99.90;;;;;;4942258;28;20035;-70
2022/05/28 05:59:39;;;;;;;25.25;3.92;;;9.70;99.90;;;;;;4942108;28;20670;-71
2022/05/28 06:02:06;;;;;;;12.27;3.03;;;10.10;99.90;;;;;;4943258;28;20058;-71
2022/05/28 06:04:31;;;;;;;25.02;4.53;;;10.30;99.90;;;;;;4939774;28;20359;-71
2022/05/28 06:06:58;;;;;;;25.13;4.40;;;10.60;99.90;;;;;;4940778;28;20043;-71
2022/05/28 06:09:23;;;;;;;23.63;3.88;;;10.50;99.90;;;;;;4942207;28;20555;-71
2022/05/28 06:11:49;;;;;;;23.17;3.88;;;10.80;99.90;;;;;;4942245;28;20118;-72
2022/05/28 06:14:15;;;;;;;14.82;3.53;;;10.80;99.90;;;;;;4943113;29;20048;-71
2022/05/28 06:16:40;;;;;;;15.15;2.40;;;10.80;99.90;;;;;;4943465;28;20047;-71
2022/05/28 06:19:08;;;;;;;18.70;5.68;;;10.80;99.90;;;;;;4940713;29;20074;-71
2022/05/28 06:21:34;;;;;;;13.35;2.80;;;10.90;99.90;;;;;;4939464;28;20047;-72
2022/05/28 06:24:00;;;;;;;14.55;3.33;;;11.10;99.90;;;;;;4940327;29;20414;-70
2022/05/28 06:26:27;;;;;;;26.20;4.20;;;11.10;99.90;;;;;;4943170;28;20043;-70
2022/05/28 06:28:53;;;;;;;18.10;3.70;;;11.20;99.90;;;;;;4943093;28;20121;-70
2022/05/28 06:31:19;;;;;;;13.20;3.85;;;11.10;99.90;;;;;;4947494;28;20079;-71
2022/05/28 06:33:44;;;;;;;17.60;3.63;;;10.90;99.90;;;;;;4946995;28;20058;-70
2022/05/28 06:36:12;;;;;;;24.35;4.57;;;10.80;99.90;;;;;;4946233;28;20538;-71
2022/05/28 06:38:38;;;;;;;21.33;4.10;;;10.80;99.90;;;;;;4942666;28;20058;-72
2022/05/28 06:41:05;;;;;;;20.05;3.97;;;10.70;99.90;;;;;;4938692;28;20191;-72
2022/05/28 06:43:30;;;;;;;17.10;3.80;;;10.70;99.90;;;;;;4944950;28;20047;-71
2022/05/28 06:45:59;;;;;;;14.65;3.08;;;11.00;99.90;;;;;;4947247;28;20058;-71
2022/05/28 06:48:25;;;;;;;19.95;3.30;;;10.80;99.90;;;;;;4944142;28;20134;-71
2022/05/28 06:51:03;;;;;;;17.13;3.33;;;10.90;99.90;;;;;;4947731;28;20079;-70
2022/05/28 06:53:37;;;;;;;15.85;4.28;;;10.90;99.90;;;;;;4945402;29;20055;-70
2022/05/28 06:56:05;;;;;;;14.95;3.67;;;11.00;99.90;;;;;;4943177;28;20130;-71
2022/05/28 06:58:31;;;;;;;17.20;3.70;;;11.40;99.90;;;;;;4945017;28;20039;-71
2022/05/28 07:00:57;;;;;;;12.65;3.13;;;11.30;99.90;;;;;;4947766;29;20101;-69
2022/05/28 07:03:25;;;;;;;15.20;3.97;;;11.30;99.90;;;;;;4942369;28;20047;-71
2022/05/28 07:05:52;;;;;;;19.88;5.72;;;11.20;99.90;;;;;;4944101;28;20043;-71
2022/05/28 07:08:18;;;;;;;18.60;2.83;;;11.20;99.90;;;;;;4947463;28;20040;-72
2022/05/28 07:10:47;;;;;;;26.27;4.32;;;11.10;99.90;;;;;;4943944;28;20410;-71
2022/05/28 07:13:14;;;;;;;17.42;3.88;;;11.30;99.90;;;;;;4943315;28;20051;-70
2022/05/28 07:15:39;;;;;;;16.77;4.45;;;11.40;99.90;;;;;;4944098;28;20043;-73
2022/05/28 07:18:06;;;;;;;28.65;4.25;;;11.50;99.90;;;;;;4946080;28;20043;-72
2022/05/28 07:20:31;;;;;;;18.77;3.25;;;11.70;99.90;;;;;;4947576;29;20058;-71
2022/05/28 07:22:57;;;;;;;18.98;4.85;;;12.10;99.90;;;;;;4946953;28;20051;-71
2022/05/28 07:25:23;;;;;;;20.42;3.85;;;12.70;99.90;;;;;;4945612;28;20518;-72
2022/05/28 07:27:48;;;;;;;15.63;4.13;;;12.70;99.90;;;;;;4940545;28;20475;-72
2022/05/28 07:30:14;;;;;;;18.20;2.97;;;12.50;99.90;;;;;;4930914;29;20526;-72
2022/05/28 07:32:40;;;;;;;21.23;4.20;;;12.30;99.90;;;;;;4945516;28;20310;-72
2022/05/28 07:35:07;;;;;;;18.77;3.05;;;12.10;99.90;;;;;;4946404;29;20072;-71
2022/05/28 07:37:32;;;;;;;12.93;3.97;;;13.20;99.90;;;;;;4942274;28;20043;-71
2022/05/28 07:39:59;;;;;;;19.58;3.80;;;12.90;99.90;;;;;;4946920;28;20050;-71
2022/05/28 07:42:26;;;;;;;19.23;3.25;;;12.40;99.90;;;;;;4945911;28;20156;-71
2022/05/28 07:44:52;;;;;;;15.27;3.58;;;12.20;99.90;;;;;;4942695;28;20055;-72
2022/05/28 07:47:18;;;;;;;14.48;2.40;;;12.00;99.90;;;;;;4944675;28;20032;-72
2022/05/28 07:49:44;;;;;;;14.52;2.92;;;11.90;99.90;;;;;;4939565;29;20083;-71
2022/05/28 07:52:10;;;;;;;17.30;2.67;;;11.90;99.90;;;;;;4945671;29;20036;-72
2022/05/28 07:54:36;;;;;;;12.43;3.60;;;12.00;99.90;;;;;;4947141;28;20047;-73
2022/05/28 07:57:02;;;;;;;21.38;3.35;;;12.10;99.90;;;;;;4945283;28;20043;-73
2022/05/28 07:59:29;;;;;;;17.40;5.00;;;12.00;99.90;;;;;;4945837;29;20043;-73
2022/05/28 08:01:55;;;;;;;23.00;4.53;;;11.90;99.90;;;;;;4943246;28;20046;-73
2022/05/28 08:04:21;;;;;;;14.30;2.92;;;11.90;99.90;;;;;;4944586;29;20101;-74
2022/05/28 08:06:47;;;;;;;11.68;3.63;;;11.90;99.90;;;;;;4945497;28;20083;-73
2022/05/28 08:09:12;;;;;;;17.48;3.13;;;11.90;99.90;;;;;;4945464;28;20082;-73
2022/05/28 08:11:39;;;;;;;19.35;4.53;;;12.10;99.90;;;;;;4941275;28;20043;-72
2022/05/28 08:14:04;;;;;;;21.67;4.47;;;12.40;99.90;;;;;;4942172;28;20039;-74
2022/05/28 08:16:30;;;;;;;18.17;3.47;;;12.30;99.90;;;;;;4942034;28;21639;-73
2022/05/28 08:18:56;;;;;;;17.10;3.35;;;12.30;99.90;;;;;;4943488;29;20047;-72
2022/05/28 08:24:07;;;;;;;16.50;3.53;;;12.80;99.90;;;;;;4943862;28;20059;-72
2022/05/28 08:26:34;;;;;;;16.20;3.13;;;13.30;99.90;;;;;;4939898;28;20133;-72
2022/05/28 08:29:00;;;;;;;26.73;4.88;;;13.00;99.90;;;;;;4941222;28;20043;-72
2022/05/28 08:31:26;;;;;;;19.75;3.65;;;12.90;99.90;;;;;;4943381;28;20040;-72
2022/05/28 08:33:51;;;;;;;15.63;4.13;;;12.50;99.90;;;;;;4937817;28;20054;-72
2022/05/28 08:36:18;;;;;;;11.43;2.80;;;12.40;99.90;;;;;;4935095;28;20087;-74
2022/05/28 08:38:44;;;;;;;18.42;3.88;;;12.20;99.90;;;;;;4925144;29;20050;-73
2022/05/28 08:41:14;;;;;;;14.68;3.17;;;12.20;99.90;;;;;;4937291;28;20447;-73
2022/05/28 08:43:46;;;;;;;15.93;3.47;;;12.40;99.90;;;;;;4943335;28;20046;-74
2022/05/28 08:46:14;;;;;;;15.25;2.70;;;12.70;99.90;;;;;;4937351;28;20043;-73
2022/05/28 08:48:47;;;;;;;16.30;3.67;;;13.40;99.90;;;;;;4943210;28;20586;-74
2022/05/28 08:51:36;;;;;;;20.83;3.65;;;13.60;99.90;;;;;;4946440;28;20054;-71
2022/05/28 08:54:26;;;;;;;13.80;4.25;;;13.30;99.90;;;;;;4942240;29;20034;-73
2022/05/28 08:56:56;;;;;;;12.63;2.75;;;13.50;99.90;;;;;;4943004;28;20601;-74
2022/05/28 08:59:25;;;;;;;;;;;13.00;99.90;;;;;;4944990;28;20035;-73
2022/05/28 09:01:52;;;;;;;14.85;2.67;;;12.80;99.90;;;;;;4945107;28;19929;-73
2022/05/28 09:04:25;;;;;;;13.95;2.38;;;12.70;99.90;;;;;;4945764;28;20067;-73
2022/05/28 09:06:55;;;;;;;20.38;2.70;;;13.40;99.90;;;;;;4944041;28;20078;-73
2022/05/28 09:09:44;;;;;;;18.73;3.05;;;13.20;99.90;;;;;;4939611;28;20051;-76
2022/05/28 09:12:28;;;;;;;9.27;2.17;;;13.70;99.90;;;;;;4938061;28;20389;-72
2022/05/28 09:14:53;;;;;;;12.32;3.92;;;14.00;99.90;;;;;;4936736;28;20058;-73
2022/05/28 09:17:39;;;;;;;10.75;1.83;;;13.60;99.90;;;;;;4941487;28;20130;-73
2022/05/28 09:20:16;;;;;;;12.65;3.45;;;12.90;99.90;;;;;;4944438;28;20047;-74
2022/05/28 09:22:42;;;;;;;13.43;2.95;;;12.80;99.90;;;;;;4942240;28;20039;-74
2022/05/28 09:25:10;;;;;;;19.38;3.42;;;12.80;99.90;;;;;;4941000;28;20061;-71
2022/05/28 09:28:01;;;;;;;9.77;3.63;;;13.00;99.90;;;;;;4939911;28;20035;-76
2022/05/28 09:30:50;;;;;;;10.38;2.20;;;13.30;99.90;;;;;;4941432;28;20111;-68
2022/05/28 09:33:52;;;;;;;19.48;4.70;;;13.00;99.90;;;;;;4946079;28;20074;-72
2022/05/28 09:36:40;;;;;;;12.35;2.92;;;13.20;99.90;;;;;;4941151;28;20052;-73
2022/05/28 09:39:35;;;;;;;16.13;2.88;;;13.20;99.90;;;;;;4940588;28;20039;-72
2022/05/28 09:42:12;;;;;;;12.63;3.25;;;13.40;99.90;;;;;;4941730;29;20047;-73
2022/05/28 09:45:09;;;;;;;7.22;2.50;;;14.20;99.90;;;;;;4945247;28;20047;-72
2022/05/28 09:47:50;;;;;;;14.20;2.70;;;14.30;99.90;;;;;;4943988;28;20039;-72
2022/05/28 09:50:22;;;;;;;15.88;3.00;;;14.00;99.90;;;;;;4943602;29;20130;-72
2022/05/28 09:56:20;;;;;;;13.23;2.95;;;13.40;99.90;;;;;;4942235;28;20134;-75
2022/05/28 09:58:46;;;;;;;21.02;3.22;;;13.40;99.90;;;;;;4936180;28;20269;-72
2022/05/28 10:01:17;;;;;;;14.88;3.42;;;13.40;99.90;;;;;;4926201;29;20135;-71
2022/05/28 10:06:30;;;;;;;11.68;2.40;;;13.30;99.90;;;;;;4935903;28;20043;-71
2022/05/28 10:08:57;;;;;;;11.48;3.13;;;13.00;99.90;;;;;;4946216;28;20383;-72
2022/05/28 10:11:23;;;;;;;12.35;3.13;;;12.90;99.90;;;;;;4943107;28;20061;-71
2022/05/28 10:13:52;;;;;;;16.15;3.05;;;13.10;99.90;;;;;;4943696;29;20067;-72
2022/05/28 10:16:37;;;;;;;17.37;3.60;;;13.20;99.90;;;;;;4938422;28;20051;-72
2022/05/28 10:19:03;;;;;;;14.20;2.20;;;13.20;99.90;;;;;;4926758;29;20099;-72
2022/05/28 10:21:37;;;;;;;12.63;1.92;;;13.20;99.90;;;;;;4940533;29;20039;-72
2022/05/28 10:24:13;;;;;;;10.32;2.60;;;13.20;99.90;;;;;;4942775;28;20047;-73
2022/05/28 10:26:48;;;;;;;11.52;2.17;;;13.00;99.90;;;;;;4943032;29;20138;-74
2022/05/28 10:29:29;;;;;;;16.35;3.35;;;12.80;99.90;;;;;;4942804;28;20406;-73
2022/05/28 10:31:57;;;;;;;7.95;1.92;;;12.60;99.90;;;;;;4929380;29;20043;-72
2022/05/28 10:34:33;;;;;;;15.90;3.40;;;12.20;99.90;;;;;;4942934;28;20076;-72
2022/05/28 10:37:09;;;;;;;16.23;3.22;;;12.00;99.90;;;;;;4943681;28;20050;-71
2022/05/28 10:39:37;;;;;;;14.70;2.58;;;12.10;99.90;;;;;;4956519;28;20051;-72
2022/05/28 10:42:04;;;;;;;12.45;3.38;;;12.10;99.90;;;;;;4923605;29;20043;-74
2022/05/28 10:44:29;;;;;;;13.65;3.08;;;12.40;99.90;;;;;;4943480;29;20383;-72
2022/05/28 10:47:39;;;;;;;20.05;4.50;;;12.50;99.90;;;;;;4944007;28;20046;-72
2022/05/28 10:50:24;;;;;;;16.83;3.40;;;12.40;99.90;;;;;;4935366;29;20498;-71
2022/05/28 10:53:08;;;;;;;15.68;2.85;;;12.60;99.90;;;;;;4942253;28;20133;-72
2022/05/28 10:55:46;;;;;;;12.35;3.58;;;12.80;99.90;;;;;;4944750;28;20047;-71
2022/05/28 10:58:14;;;;;;;15.13;3.08;;;13.10;99.90;;;;;;4927130;29;20051;-72
2022/05/28 11:01:13;;;;;;;14.13;2.70;;;13.30;99.90;;;;;;4935065;29;20051;-74
2022/05/28 11:03:58;;;;;;;19.70;2.42;;;13.90;99.90;;;;;;4943320;28;20125;-73
2022/05/28 11:07:14;;;;;;;13.32;2.92;;;13.90;99.90;;;;;;4942288;29;20075;-72
2022/05/28 11:10:11;;;;;;;9.77;2.33;;;13.60;99.90;;;;;;4924447;29;20059;-72
2022/05/28 11:13:13;;;;;;;12.30;2.15;;;13.50;99.90;;;;;;4926918;28;20063;-71
2022/05/28 11:16:14;;;;;;;16.17;3.83;;;13.50;99.90;;;;;;4913103;28;20066;-74
2022/05/28 11:18:43;;;;;;;14.20;2.00;;;13.40;99.90;;;;;;4947280;28;20054;-73
2022/05/28 11:21:34;;;;;;;11.90;3.45;;;13.00;99.90;;;;;;4943379;28;20044;-73
2022/05/28 11:24:28;;;;;;;16.50;3.42;;;12.90;99.90;;;;;;4948126;28;20101;-73
2022/05/28 11:26:56;;;;;;;10.65;2.70;;;12.80;99.90;;;;;;4942592;28;20126;-72
2022/05/28 11:29:35;;;;;;;16.90;5.00;;;13.00;99.90;;;;;;4943979;28;20513;-73
2022/05/28 11:32:09;;;;;;;20.48;3.83;;;13.10;99.90;;;;;;4946307;28;20043;-72
2022/05/28 11:34:52;;;;;;;12.82;3.65;;;13.40;99.90;;;;;;4948060;28;20043;-71
2022/05/28 11:37:24;;;;;;;10.35;1.95;;;13.30;99.90;;;;;;4941391;28;20039;-72
2022/05/28 11:40:04;;;;;;;10.73;2.28;;;13.50;99.90;;;;;;4946682;28;20075;-71
2022/05/28 11:42:52;;;;;;;8.93;1.98;;;13.80;99.90;;;;;;4944497;28;20084;-71
2022/05/28 11:45:28;;;;;;;10.40;1.80;;;14.10;99.90;;;;;;4946524;28;20379;-72
2022/05/28 11:48:09;;;;;;;11.27;2.75;;;14.00;99.90;;;;;;4938626;28;20535;-74
2022/05/28 11:53:47;;;;;;;4.60;1.38;;;14.40;99.90;;;;;;4946499;28;20106;-75
2022/05/28 11:56:18;;;;;;;7.70;2.55;;;14.50;99.90;;;;;;4941468;28;20081;-76
2022/05/28 11:58:54;;;;;;;10.25;1.60;;;14.30;99.90;;;;;;4939941;28;20117;-76
2022/05/28 12:01:27;;;;;;;7.32;2.63;;;14.20;99.90;;;;;;4943217;28;20043;-75
2022/05/28 12:03:53;;;;;;;12.63;2.22;;;14.60;99.90;;;;;;4946288;28;20700;-72
2022/05/28 12:06:34;;;;;;;8.52;1.90;;;14.80;99.90;;;;;;4946420;28;20102;-72
2022/05/28 12:09:20;;;;;;;10.82;2.50;;;14.70;99.90;;;;;;4940533;28;20043;-71
2022/05/28 12:11:50;;;;;;;9.35;1.50;;;14.40;99.90;;;;;;4941720;28;20059;-75
2022/05/28 12:14:24;;;;;;;;;;;14.10;99.90;;;;;;4943931;28;20035;-71
2022/05/28 12:17:04;;;;;;;21.38;4.07;;;13.70;99.90;;;;;;4946693;28;20132;-72
2022/05/28 12:19:32;;;;;;;11.70;2.38;;;13.50;99.90;;;;;;4946759;29;20043;-71
2022/05/28 12:22:22;;;;;;;7.82;2.90;;;13.30;99.90;;;;;;4945555;29;20043;-71
2022/05/28 12:24:56;;;;;;;11.77;2.70;;;13.30;99.90;;;;;;4944784;29;20063;-72
2022/05/28 12:27:24;;;;;;;11.27;2.67;;;13.30;99.90;;;;;;4943870;28;20458;-72
2022/05/28 12:30:01;;;;;;;17.35;2.20;;;13.50;99.90;;;;;;4945383;28;20051;-73
2022/05/28 12:32:48;;;;;;;19.50;4.75;;;13.60;99.90;;;;;;4946678;28;20035;-72
2022/05/28 12:35:25;;;;;;;11.82;2.20;;;13.80;99.90;;;;;;4946544;29;20094;-72
2022/05/28 12:38:12;;;;;;;7.80;2.10;;;13.50;99.90;;;;;;4944249;29;20410;-73
2022/05/28 12:40:57;;;;;;;11.77;1.92;;;13.50;99.90;;;;;;4960695;28;20066;-73
2022/05/28 12:43:32;;;;;;;7.25;1.88;;;13.70;99.90;;;;;;4941120;28;20074;-73
2022/05/28 12:46:11;;;;;;;12.13;2.75;;;13.60;99.90;;;;;;4945497;28;20050;-72
2022/05/28 12:48:38;;;;;;;10.27;2.42;;;13.30;99.90;;;;;;4942491;28;20530;-72
2022/05/28 12:51:03;;;;;;;12.65;1.95;;;13.60;99.90;;;;;;4945787;28;20043;-72
2022/05/28 12:53:54;;;;;;;7.63;1.67;;;13.90;99.90;;;;;;4945046;28;20046;-72
2022/05/28 12:56:40;;;;;;;8.27;2.35;;;14.30;99.90;;;;;;4945684;29;20059;-73
2022/05/28 12:59:13;;;;;;;8.15;1.95;;;14.50;99.90;;;;;;4944939;29;20047;-73
2022/05/28 13:01:49;;;;;;;5.80;1.25;;;14.80;99.90;;;;;;4945235;29;20491;-74
2022/05/28 13:04:18;;;;;;;5.65;1.73;;;14.90;99.90;;;;;;4944811;28;20058;-72
2022/05/28 13:06:53;;;;;;;13.93;4.43;;;15.20;99.90;;;;;;4944747;28;20075;-74
2022/05/28 13:09:24;;;;;;;11.60;2.70;;;14.70;99.90;;;;;;4943984;29;20051;-72
2022/05/28 13:12:32;;;;;;;7.45;1.77;;;14.70;99.90;;;;;;4944107;29;20050;-72
2022/05/28 13:15:29;;;;;;;15.45;2.67;;;14.60;99.90;;;;;;4944203;28;20062;-71